KISO/ISO METAR and TAF weather

Enter ICAO airport designator
Station Type Date Time Source
KISO METAR 2022/10/01 08:35 UTC NOAA

KISO 010835Z AUTO 18010G18KT 10SM OVC027 19/16 A2970 RMK AO2 T01850155


Station Type Date Time Source
KISO Decoded METAR 2022/10/01 08:35 UTC NOAA

Kinston, Kinston Regional Jetport at Stallings Field, NC, United States (KISO) 35-20N 077-37W
Oct 01, 2022 - 04:35 AM EDT / 2022.10.01 0835 UTC
Wind: from the S (180 degrees) at 12 MPH (10 KT) gusting to 21 MPH (18 KT):0
Visibility: 10 mile(s):0
Sky conditions: overcast
Temperature: 65.3 F (18.5 C)
Dew Point: 59.9 F (15.5 C)
Relative Humidity: 82%
Pressure (altimeter): 29.7 in. Hg (1005 hPa)
ob: KISO 010835Z AUTO 18010G18KT 10SM OVC027 19/16 A2970 RMK AO2 T01850155
cycle: 8

Station Type Date Time Source
KISO TAF 2022/10/01 06:48 UTC NOAA

TAF KISO 010545Z 0106/0206 16011G18KT P6SM BKN015
FM011800 21009G16KT P6SM SCT025
FM020200 00000KT P6SM FEW080
AMD LTD TO CLD VIS AND WIND

Example: see airport list